createdAt,value
2023-01-07T00:04:32.197Z,18.92
2023-01-07T00:09:34.469Z,18.91
2023-01-07T00:14:36.478Z,18.93
2023-01-07T00:19:38.361Z,18.93
2023-01-07T00:24:40.546Z,18.93
2023-01-07T00:29:42.608Z,18.94
2023-01-07T00:34:47.616Z,18.91
2023-01-07T00:39:49.494Z,18.93
2023-01-07T00:44:51.300Z,18.94
2023-01-07T00:49:53.136Z,18.94
2023-01-07T00:54:55.037Z,18.95
2023-01-07T00:59:57.216Z,18.98
2023-01-07T01:04:59.121Z,18.97
2023-01-07T01:10:01.405Z,18.94
2023-01-07T01:15:09.847Z,18.87
2023-01-07T01:20:14.802Z,18.92
2023-01-07T01:25:17.161Z,18.89
2023-01-07T01:30:19.431Z,18.91
2023-01-07T01:35:22.468Z,18.93
2023-01-07T01:40:29.263Z,18.94
2023-01-07T01:45:31.381Z,18.92
2023-01-07T01:50:43.967Z,18.96
2023-01-07T01:56:14.793Z,18.91
2023-01-07T02:01:17.215Z,18.89
2023-01-07T02:06:24.005Z,18.96
2023-01-07T02:11:46.172Z,18.90
2023-01-07T02:16:53.919Z,18.94
2023-01-07T02:22:13.290Z,18.95
2023-01-07T02:27:33.970Z,18.87
2023-01-07T02:32:48.133Z,18.93
2023-01-07T02:38:05.121Z,18.90
2023-01-07T02:43:33.989Z,18.89
2023-01-07T02:48:36.895Z,18.94
2023-01-07T02:53:42.398Z,18.96
2023-01-07T02:59:25.817Z,18.91
2023-01-07T03:04:51.749Z,18.97
2023-01-07T03:10:02.931Z,18.96
2023-01-07T03:15:11.154Z,18.93
2023-01-07T03:20:15.223Z,18.89
2023-01-07T03:25:19.366Z,18.96
2023-01-07T03:30:22.476Z,18.96
2023-01-07T03:35:25.448Z,18.95
2023-01-07T03:40:27.584Z,18.96
2023-01-07T03:45:29.502Z,19.00
2023-01-07T03:50:31.405Z,18.97
2023-01-07T03:55:33.332Z,18.93
2023-01-07T04:00:35.197Z,18.94
2023-01-07T04:05:37.254Z,18.94
2023-01-07T04:10:39.188Z,18.95
2023-01-07T04:15:41.548Z,18.90
2023-01-07T04:20:47.060Z,18.95
2023-01-07T04:25:50.111Z,18.92
2023-01-07T04:30:52.071Z,18.95
2023-01-07T04:35:54.080Z,18.94
2023-01-07T04:40:55.918Z,18.96
2023-01-07T04:45:58.167Z,18.96
2023-01-07T04:51:00.339Z,18.93
2023-01-07T04:56:02.447Z,18.97
2023-01-07T05:01:05.083Z,18.98
2023-01-07T05:06:07.122Z,18.96
2023-01-07T05:11:09.005Z,18.92
2023-01-07T05:16:11.126Z,18.94
2023-01-07T05:21:13.152Z,18.95
2023-01-07T05:26:15.142Z,18.92
2023-01-07T05:31:17.215Z,18.93
2023-01-07T05:36:19.212Z,18.92
2023-01-07T05:41:20.961Z,18.95
2023-01-07T05:46:22.891Z,18.97
2023-01-07T05:51:24.887Z,18.98
2023-01-07T05:56:26.712Z,18.98
2023-01-07T06:01:28.967Z,18.93
2023-01-07T06:06:31.103Z,18.92
2023-01-07T06:11:33.050Z,18.95
2023-01-07T06:16:35.769Z,18.98
2023-01-07T06:21:38.008Z,18.94
2023-01-07T06:26:40.061Z,18.97
2023-01-07T06:31:42.033Z,18.97
2023-01-07T06:36:44.155Z,18.94
2023-01-07T06:41:45.918Z,18.95
2023-01-07T06:46:47.713Z,18.94
2023-01-07T06:51:49.572Z,18.89
2023-01-07T06:56:51.434Z,18.92
2023-01-07T07:01:53.497Z,18.97
2023-01-07T07:06:55.832Z,18.82
2023-01-07T07:11:57.699Z,18.83
2023-01-07T07:16:59.845Z,18.98
2023-01-07T07:22:03.880Z,19.00
2023-01-07T07:27:06.425Z,18.99
2023-01-07T07:32:09.366Z,18.98
2023-01-07T07:37:11.240Z,18.79
2023-01-07T07:42:13.277Z,18.87
2023-01-07T07:47:15.071Z,18.92
2023-01-07T07:52:17.651Z,18.91
2023-01-07T07:57:19.617Z,18.91
2023-01-07T08:02:21.701Z,18.94
2023-01-07T08:07:32.222Z,18.89
2023-01-07T08:12:38.811Z,18.95
2023-01-07T08:17:40.900Z,18.88
2023-01-07T08:22:43.121Z,18.87
2023-01-07T08:27:45.270Z,18.93
2023-01-07T08:32:47.204Z,18.89
2023-01-07T08:37:49.508Z,18.94
2023-01-07T08:42:51.462Z,18.93
2023-01-07T08:47:53.333Z,18.88
2023-01-07T08:52:55.171Z,18.92
2023-01-07T08:57:57.744Z,18.92
2023-01-07T09:02:59.447Z,18.95
2023-01-07T09:08:03.053Z,18.91
2023-01-07T09:13:05.131Z,18.91
2023-01-07T09:18:07.359Z,18.93
2023-01-07T09:23:09.295Z,18.94
2023-01-07T09:28:11.259Z,18.96
2023-01-07T09:33:13.530Z,18.84
2023-01-07T09:38:15.744Z,18.89
2023-01-07T09:44:00.035Z,18.82
2023-01-07T09:49:04.590Z,18.91
2023-01-07T09:54:19.009Z,18.96
2023-01-07T09:59:21.069Z,18.97
2023-01-07T10:04:34.927Z,18.95
2023-01-07T10:09:45.159Z,18.93
2023-01-07T10:15:06.040Z,18.93
2023-01-07T10:20:30.344Z,18.89
2023-01-07T10:25:37.877Z,18.99
2023-01-07T10:30:46.944Z,18.92
2023-01-07T10:35:58.552Z,18.92
2023-01-07T10:41:07.954Z,18.95
2023-01-07T10:46:24.188Z,18.95
2023-01-07T10:51:47.811Z,18.98
2023-01-07T10:56:58.413Z,18.94
2023-01-07T11:02:01.474Z,18.97
2023-01-07T11:07:13.438Z,18.93
2023-01-07T11:13:00.154Z,18.97
2023-01-07T11:18:20.275Z,18.97
2023-01-07T11:23:31.049Z,18.83
2023-01-07T11:28:34.042Z,18.92
2023-01-07T11:34:02.958Z,18.88
2023-01-07T11:39:18.423Z,18.94
2023-01-07T11:44:20.739Z,19.00
2023-01-07T11:49:27.010Z,18.97
2023-01-07T11:54:30.115Z,18.84
2023-01-07T11:59:32.165Z,18.83
2023-01-07T12:04:36.723Z,18.94
2023-01-07T12:09:41.137Z,18.92
2023-01-07T12:14:48.150Z,18.93
2023-01-07T12:20:20.934Z,18.86
2023-01-07T12:25:30.046Z,18.83
2023-01-07T12:31:13.729Z,18.82
2023-01-07T12:36:35.727Z,18.85
2023-01-07T12:41:41.925Z,18.88
2023-01-07T12:47:30.834Z,18.84
2023-01-07T12:52:51.641Z,18.90
2023-01-07T12:58:19.886Z,18.94
2023-01-07T13:03:34.620Z,18.91
2023-01-07T13:08:58.566Z,18.94
2023-01-07T13:14:00.890Z,18.92
2023-01-07T13:19:03.116Z,18.95
2023-01-07T13:24:55.005Z,18.82
2023-01-07T13:30:12.748Z,18.61
2023-01-07T13:35:20.455Z,18.61
2023-01-07T13:41:00.936Z,18.73
2023-01-07T13:46:20.612Z,18.63
2023-01-07T13:51:32.342Z,18.68
2023-01-07T13:56:37.640Z,18.56
2023-01-07T14:02:17.208Z,18.57
2023-01-07T14:07:20.292Z,18.48
2023-01-07T14:12:43.993Z,18.52
2023-01-07T14:18:11.921Z,18.60
2023-01-07T14:23:31.557Z,18.58
2023-01-07T14:28:55.275Z,18.59
2023-01-07T14:34:07.590Z,18.65
2023-01-07T14:39:30.423Z,18.47
2023-01-07T14:44:32.691Z,18.63
2023-01-07T14:49:43.556Z,18.61
2023-01-07T14:54:51.220Z,18.74
2023-01-07T15:00:04.582Z,18.82
2023-01-07T15:05:18.803Z,18.82
2023-01-07T15:10:42.680Z,18.73
2023-01-07T15:16:01.713Z,18.66
2023-01-07T15:21:46.046Z,18.32
2023-01-07T15:27:10.500Z,18.50
2023-01-07T15:32:33.928Z,18.52
2023-01-07T15:37:35.866Z,18.53
2023-01-07T15:42:37.900Z,18.47
2023-01-07T15:47:43.577Z,18.43
2023-01-07T15:53:13.764Z,18.48
2023-01-07T15:58:22.118Z,18.53
2023-01-07T16:03:24.819Z,18.39
2023-01-07T16:08:31.279Z,18.33
2023-01-07T16:13:33.654Z,18.28
2023-01-07T16:18:35.636Z,18.27
2023-01-07T16:23:38.895Z,18.50
2023-01-07T16:29:02.195Z,18.52
2023-01-07T16:34:26.397Z,18.51
2023-01-07T16:39:32.286Z,18.48
2023-01-07T16:44:57.927Z,18.45
2023-01-07T16:50:20.317Z,18.44
2023-01-07T16:55:48.803Z,18.47
2023-01-07T17:00:53.629Z,18.58
2023-01-07T17:06:08.023Z,18.56
2023-01-07T17:11:28.131Z,18.61
2023-01-07T17:16:32.512Z,18.59
2023-01-07T17:21:37.097Z,18.57
2023-01-07T17:26:42.261Z,18.54
2023-01-07T17:31:44.333Z,18.61
2023-01-07T17:36:46.687Z,18.57
2023-01-07T17:42:07.357Z,18.57
2023-01-07T17:47:12.374Z,18.57
2023-01-07T17:52:14.686Z,18.58
2023-01-07T17:57:16.661Z,18.62
2023-01-07T18:02:21.992Z,18.47
2023-01-07T18:07:23.882Z,18.47
2023-01-07T18:12:33.728Z,18.46
2023-01-07T18:17:35.598Z,18.42
2023-01-07T18:22:37.716Z,18.52
2023-01-07T18:27:39.816Z,18.55
2023-01-07T18:32:42.211Z,18.60
2023-01-07T18:37:44.227Z,18.71
2023-01-07T18:42:46.269Z,18.57
2023-01-07T18:47:48.882Z,18.62
2023-01-07T18:52:51.058Z,18.65
2023-01-07T18:57:53.306Z,18.66
2023-01-07T19:02:55.721Z,18.64
2023-01-07T19:07:57.795Z,18.71
2023-01-07T19:12:59.813Z,18.54
2023-01-07T19:18:01.719Z,18.51
2023-01-07T19:23:03.800Z,18.44
2023-01-07T19:28:05.689Z,18.53
2023-01-07T19:33:08.162Z,18.46
2023-01-07T19:38:10.175Z,18.55
2023-01-07T19:43:13.000Z,18.60
2023-01-07T19:48:14.902Z,18.65
2023-01-07T19:53:16.974Z,18.68
2023-01-07T19:58:18.846Z,18.68
2023-01-07T20:03:20.804Z,18.70
2023-01-07T20:08:23.996Z,18.72
2023-01-07T20:13:27.623Z,18.69
2023-01-07T20:18:29.501Z,18.71
2023-01-07T20:23:31.828Z,18.71
2023-01-07T20:28:34.150Z,18.71
2023-01-07T20:33:36.066Z,18.71
2023-01-07T20:38:38.086Z,18.72
2023-01-07T20:43:40.269Z,18.75
2023-01-07T20:48:42.130Z,18.69
2023-01-07T20:53:45.060Z,18.72
2023-01-07T20:58:48.286Z,18.67
2023-01-07T21:03:50.974Z,18.64
2023-01-07T21:08:53.032Z,18.74
2023-01-07T21:13:56.669Z,18.68
2023-01-07T21:18:58.831Z,18.69
2023-01-07T21:24:00.975Z,18.62
2023-01-07T21:29:02.885Z,18.55
2023-01-07T21:34:05.068Z,18.60
2023-01-07T21:39:07.060Z,18.60
2023-01-07T21:44:11.955Z,18.65
2023-01-07T21:49:13.719Z,18.67
2023-01-07T21:54:15.790Z,18.67
2023-01-07T21:59:17.719Z,18.66
2023-01-07T22:04:20.023Z,18.67
2023-01-07T22:09:22.160Z,18.66
2023-01-07T22:14:24.674Z,18.71
2023-01-07T22:19:26.483Z,18.64
2023-01-07T22:24:29.570Z,18.72
2023-01-07T22:29:32.911Z,18.73
2023-01-07T22:34:35.071Z,18.71
2023-01-07T22:39:45.780Z,18.66
2023-01-07T22:45:01.074Z,18.67
2023-01-07T22:50:05.680Z,18.68
2023-01-07T22:55:08.135Z,18.66
2023-01-07T23:00:35.658Z,18.63
2023-01-07T23:05:40.109Z,18.71
2023-01-07T23:10:45.403Z,18.72
2023-01-07T23:15:47.500Z,18.63
2023-01-07T23:20:49.564Z,18.71
2023-01-07T23:25:52.076Z,18.73
2023-01-07T23:30:54.620Z,18.76
2023-01-07T23:36:04.207Z,18.70
2023-01-07T23:41:08.706Z,18.73
2023-01-07T23:46:10.936Z,18.68
2023-01-07T23:51:16.051Z,18.69
2023-01-07T23:56:19.601Z,18.53
